Time;durP1;ratioP1;P1;durP2;ratioP2;P2;SDS_P1;SDS_P2;PMS_P1;PMS_P2;Temp;Humidity;BMP_temperature;BMP_pressure;BME280_temperature;BME280_humidity;BME280_pressure;Samples;Min_cycle;Max_cycle;Signal;HPM_P1;HPM_P2
2022/07/27 00:01:44;;;;;;;3.37;2.13;;;25.10;51.00;;;-142.21;52.79;112049.66;5053216;28;20535;-75
2022/07/27 00:04:11;;;;;;;2.70;2.20;;;25.10;51.00;;;-142.21;52.72;112049.66;5055415;28;20899;-74
2022/07/27 00:06:38;;;;;;;3.10;2.10;;;25.00;51.10;;;-142.21;53.08;112049.66;5062556;28;20221;-74
2022/07/27 00:09:07;;;;;;;2.50;2.30;;;25.00;51.30;;;-142.21;53.60;112049.66;5067977;28;20239;-75
2022/07/27 00:11:34;;;;;;;3.53;2.07;;;24.90;51.60;;;-142.21;54.31;112049.66;5052592;28;20534;-74
2022/07/27 00:14:01;;;;;;;3.80;2.20;;;24.90;51.70;;;-142.21;54.26;112049.66;5056972;28;20206;-74
2022/07/27 00:16:28;;;;;;;2.13;2.03;;;24.80;51.70;;;-142.21;55.32;112049.66;5058746;28;20208;-74
2022/07/27 00:18:55;;;;;;;2.33;2.20;;;24.90;51.90;;;-142.21;56.00;112049.66;5073255;28;20208;-74
2022/07/27 00:21:25;;;;;;;4.10;2.40;;;24.80;52.00;;;-142.21;56.03;112049.66;5059399;28;20853;-74
2022/07/27 00:23:53;;;;;;;3.90;2.60;;;24.80;52.10;;;-142.21;55.98;112049.66;5058393;28;20224;-74
2022/07/27 00:26:21;;;;;;;2.80;2.10;;;24.80;52.10;;;-142.21;56.14;112049.66;5069217;28;20200;-74
2022/07/27 00:28:49;;;;;;;3.13;2.30;;;24.80;52.30;;;-142.21;56.68;112049.66;5055475;28;20575;-74
2022/07/27 00:31:17;;;;;;;2.53;2.23;;;24.70;52.40;;;-142.21;57.53;112049.66;5068543;28;20283;-73
2022/07/27 00:33:44;;;;;;;3.53;2.20;;;24.60;52.90;;;-142.21;58.67;112049.66;5062806;28;20204;-74
2022/07/27 00:36:11;;;;;;;4.43;2.27;;;24.40;52.90;;;-142.21;58.97;112049.66;5062912;28;20298;-74
2022/07/27 00:38:39;;;;;;;2.27;2.07;;;24.40;53.20;;;-142.21;59.25;112049.66;5066428;28;20232;-74
2022/07/27 00:41:06;;;;;;;2.60;2.40;;;24.40;53.30;;;-142.21;59.46;112049.66;5054345;28;20225;-74
2022/07/27 00:43:50;;;;;;;3.10;2.13;;;24.30;53.50;;;-142.21;59.51;112049.66;5054954;28;20198;-74
2022/07/27 00:46:18;;;;;;;2.63;1.80;;;24.30;53.80;;;-142.21;60.98;112049.66;5041658;28;20208;-74
2022/07/27 00:48:45;;;;;;;3.43;2.20;;;24.30;53.70;;;-142.21;59.97;112049.66;5061380;28;20703;-74
2022/07/27 00:51:14;;;;;;;3.10;1.93;;;24.40;53.50;;;-142.21;60.39;112049.66;5059159;28;20210;-74
2022/07/27 00:53:41;;;;;;;2.60;2.20;;;24.30;53.70;;;-142.21;60.14;112049.66;5060954;28;20205;-74
2022/07/27 00:56:09;;;;;;;3.03;2.47;;;24.40;53.50;;;-142.21;60.06;112049.66;5053557;28;20208;-73
2022/07/27 00:58:39;;;;;;;3.10;2.43;;;24.40;53.60;;;-142.21;60.18;112049.66;5055240;28;20204;-74
2022/07/27 01:01:06;;;;;;;2.40;2.20;;;24.40;53.70;;;-142.21;60.81;112049.66;5070112;28;20230;-74
2022/07/27 01:03:34;;;;;;;2.50;2.30;;;24.40;53.80;;;-142.21;60.74;112049.66;5059654;28;20202;-74
2022/07/27 01:06:01;;;;;;;3.53;2.63;;;24.40;54.40;;;-142.21;61.02;112049.66;5056437;28;20229;-74
2022/07/27 01:08:29;;;;;;;2.30;2.10;;;24.40;53.80;;;-142.21;60.65;112049.66;5067116;28;20231;-75
2022/07/27 01:10:57;;;;;;;3.03;2.37;;;24.40;53.80;;;-142.21;61.06;112049.66;5073425;28;20721;-74
2022/07/27 01:13:26;;;;;;;2.50;2.30;;;24.40;54.50;;;-142.21;61.50;112049.66;5070371;28;20203;-74
2022/07/27 01:15:56;;;;;;;2.30;2.10;;;24.40;54.30;;;-142.21;61.31;112049.66;5064657;28;20198;-74
2022/07/27 01:18:30;;;;;;;2.20;2.00;;;24.50;54.00;;;-142.21;61.04;112049.66;5056804;28;20579;-73
2022/07/27 01:21:00;;;;;;;2.40;2.20;;;24.40;54.00;;;-142.21;61.23;112049.66;5063193;28;20201;-74
2022/07/27 01:23:31;;;;;;;3.30;2.10;;;24.40;53.90;;;-142.21;61.55;112049.66;5064666;28;20202;-75
2022/07/27 01:25:59;;;;;;;2.10;2.00;;;24.50;54.10;;;-142.21;61.74;112049.66;5068479;28;20224;-75
2022/07/27 01:28:26;;;;;;;2.30;2.10;;;24.40;54.10;;;-142.21;61.54;112049.66;5061636;28;20227;-75
2022/07/27 01:30:54;;;;;;;2.80;2.00;;;24.40;54.10;;;-142.21;60.85;112049.66;5087487;28;20333;-75
2022/07/27 01:33:25;;;;;;;2.00;1.90;;;24.40;54.60;;;-142.21;60.72;112049.66;5067238;28;20308;-74
2022/07/27 01:35:54;;;;;;;2.37;2.17;;;24.40;53.80;;;-142.21;61.36;112049.66;5066797;28;20193;-74
2022/07/27 01:38:22;;;;;;;2.10;1.90;;;24.40;54.10;;;-142.21;61.47;112049.66;5068195;28;20444;-74
2022/07/27 01:40:51;;;;;;;1.93;1.83;;;24.40;54.00;;;-142.21;61.06;112049.66;5068894;28;20218;-74
2022/07/27 01:43:19;;;;;;;2.73;2.00;;;24.40;54.10;;;-142.21;61.50;112049.66;5069270;28;20207;-74
2022/07/27 01:45:47;;;;;;;2.50;2.07;;;24.40;54.60;;;-142.21;61.62;112049.66;5069211;28;20266;-74
2022/07/27 01:48:14;;;;;;;1.90;1.80;;;24.40;54.00;;;-142.21;62.08;112049.66;5061732;28;20205;-75
2022/07/27 01:50:42;;;;;;;2.00;1.90;;;24.40;54.10;;;-142.21;62.28;112049.66;5075339;28;20216;-74
2022/07/27 01:53:09;;;;;;;2.50;1.77;;;24.40;54.20;;;-142.21;62.53;112049.66;5067735;28;20213;-74
2022/07/27 01:55:36;;;;;;;1.93;1.83;;;24.40;54.20;;;-142.21;62.71;112049.66;5056656;28;20216;-74
2022/07/27 01:58:06;;;;;;;3.53;2.27;;;24.40;54.20;;;-142.21;62.97;112049.66;5064973;28;20201;-74
2022/07/27 02:00:33;;;;;;;2.90;1.90;;;24.40;54.30;;;-142.21;63.10;112049.66;5062657;28;20217;-74
2022/07/27 02:03:01;;;;;;;2.00;1.80;;;24.40;54.40;;;-142.21;62.58;112049.66;5064531;28;20194;-74
2022/07/27 02:05:28;;;;;;;2.00;1.90;;;24.40;54.10;;;-142.21;63.00;112049.66;5071057;28;20202;-74
2022/07/27 02:07:55;;;;;;;2.20;1.87;;;24.40;54.30;;;-142.21;62.52;112049.66;5064575;28;20645;-75
2022/07/27 02:10:22;;;;;;;2.30;2.10;;;24.40;54.30;;;-142.21;62.95;112049.66;5065996;28;20638;-74
2022/07/27 02:12:48;;;;;;;3.23;2.20;;;24.40;54.40;;;-142.21;63.08;112049.66;5071134;28;20205;-74
2022/07/27 02:15:22;;;;;;;2.47;2.20;;;24.40;54.40;;;-142.21;63.63;112049.66;5056061;28;20209;-74
2022/07/27 02:17:50;;;;;;;2.37;1.70;;;24.30;54.50;;;-142.21;62.95;112049.66;5067838;28;20194;-74
2022/07/27 02:20:23;;;;;;;2.10;1.90;;;24.30;54.50;;;-142.21;62.44;112049.66;5071659;28;20202;-74
2022/07/27 02:22:51;;;;;;;2.03;1.83;;;24.30;54.50;;;-142.21;62.27;112049.66;5060629;28;20280;-74
2022/07/27 02:25:20;;;;;;;2.30;2.10;;;24.30;54.30;;;-142.21;62.10;112049.66;5058746;28;20201;-74
2022/07/27 02:27:48;;;;;;;1.90;1.80;;;24.30;54.40;;;-142.21;62.15;112049.66;5069062;28;20193;-74
2022/07/27 02:30:17;;;;;;;2.30;2.00;;;24.30;54.30;;;-142.21;62.53;112049.66;5074716;28;20205;-74
2022/07/27 02:32:44;;;;;;;2.17;1.80;;;24.30;54.20;;;-142.21;63.08;112049.66;5064017;28;20648;-74
2022/07/27 02:35:11;;;;;;;2.10;1.90;;;24.30;54.40;;;-142.21;62.95;112049.66;5073111;28;20206;-74
2022/07/27 02:37:38;;;;;;;1.80;1.60;;;24.20;54.40;;;-142.21;63.05;112049.66;5060903;28;20291;-74
2022/07/27 02:40:07;;;;;;;2.77;1.73;;;24.20;54.40;;;-142.21;62.83;112049.66;5069547;28;20201;-74
2022/07/27 02:42:34;;;;;;;2.10;1.90;;;24.20;54.50;;;-142.21;64.42;112049.66;5066262;28;20216;-74
2022/07/27 02:45:01;;;;;;;1.97;1.80;;;24.10;54.90;;;-142.21;64.70;112049.66;5065077;28;20284;-74
2022/07/27 02:47:30;;;;;;;2.50;2.30;;;24.10;55.00;;;-142.21;66.36;112049.66;5058199;28;20202;-74
2022/07/27 02:49:57;;;;;;;2.50;2.13;;;24.10;55.30;;;-142.21;67.21;112049.66;5053634;28;20341;-74
2022/07/27 02:52:24;;;;;;;2.53;1.97;;;24.10;55.50;;;-142.21;66.93;112049.66;5058678;28;20289;-74
2022/07/27 02:54:51;;;;;;;2.37;2.17;;;24.00;55.70;;;-142.21;67.52;112049.66;5054134;28;20211;-74
2022/07/27 02:57:19;;;;;;;4.23;2.17;;;24.00;55.80;;;-142.21;67.42;112049.66;5054866;28;20201;-74
2022/07/27 02:59:46;;;;;;;2.10;1.90;;;24.00;55.90;;;-142.21;66.91;112049.66;5057974;28;20197;-73
2022/07/27 03:02:13;;;;;;;2.03;1.87;;;23.90;55.70;;;-142.21;66.75;112049.66;5057826;28;20286;-74
2022/07/27 03:04:42;;;;;;;1.90;1.80;;;23.90;55.70;;;-142.21;66.98;112049.66;5073943;28;20201;-74
2022/07/27 03:07:09;;;;;;;2.40;2.20;;;23.90;55.90;;;-142.21;66.91;112049.66;5065451;28;20311;-74
2022/07/27 03:09:36;;;;;;;2.17;1.90;;;23.90;55.80;;;-142.21;67.36;112049.66;5053317;28;20246;-75
2022/07/27 03:12:04;;;;;;;1.90;1.80;;;23.90;55.90;;;-142.21;67.21;112049.66;5064887;28;20198;-74
2022/07/27 03:14:31;;;;;;;2.07;1.87;;;23.90;55.90;;;-142.21;67.35;112049.66;5060167;28;20216;-73
2022/07/27 03:16:58;;;;;;;3.00;2.30;;;23.90;55.90;;;-142.21;66.56;112049.66;5066220;28;20194;-74
2022/07/27 03:19:25;;;;;;;2.20;1.97;;;23.90;55.20;;;-142.21;66.30;112049.66;5067685;28;20542;-74
2022/07/27 03:21:54;;;;;;;2.07;1.87;;;23.90;55.50;;;-142.21;66.85;112049.66;5055466;28;20546;-74
2022/07/27 03:24:21;;;;;;;1.93;1.80;;;23.80;56.30;;;-142.21;66.32;112049.66;5058082;28;20232;-74
2022/07/27 03:26:48;;;;;;;2.07;1.97;;;23.80;55.70;;;-142.21;66.51;112049.66;5057562;28;20201;-74
2022/07/27 03:29:16;;;;;;;2.20;1.87;;;23.80;55.60;;;-142.21;66.56;112049.66;5057030;28;20201;-74
2022/07/27 03:31:44;;;;;;;2.37;2.10;;;23.80;55.70;;;-142.21;65.75;112049.66;5066336;28;20200;-74
2022/07/27 03:34:11;;;;;;;2.30;2.10;;;23.80;55.50;;;-142.21;65.21;112049.66;5065748;28;20656;-74
2022/07/27 03:36:38;;;;;;;2.13;1.97;;;23.80;55.30;;;-142.21;64.78;112049.66;5065813;28;20540;-74
2022/07/27 03:39:07;;;;;;;1.70;1.60;;;23.80;55.30;;;-142.21;64.67;112049.66;5063480;28;20200;-74
2022/07/27 03:41:34;;;;;;;2.10;1.90;;;23.80;55.20;;;-142.21;64.77;112049.66;5064379;28;20220;-74
2022/07/27 03:44:02;;;;;;;2.80;2.10;;;23.80;55.20;;;-142.21;64.81;112049.66;5065370;28;20204;-74
2022/07/27 03:46:29;;;;;;;2.13;1.77;;;23.80;55.10;;;-142.21;64.93;112049.66;5058649;28;20197;-73
2022/07/27 03:48:56;;;;;;;1.80;1.70;;;23.80;55.20;;;-142.21;65.11;112049.66;5057501;28;20206;-74
2022/07/27 03:51:23;;;;;;;3.00;1.77;;;23.80;55.20;;;-142.21;64.87;112049.66;5069182;28;20232;-74
2022/07/27 03:53:50;;;;;;;1.80;1.60;;;23.80;55.10;;;-142.21;64.41;112049.66;5057498;28;20285;-74
2022/07/27 03:56:19;;;;;;;2.97;2.13;;;23.80;55.10;;;-142.21;64.02;112049.66;5062592;28;20231;-73
2022/07/27 03:58:46;;;;;;;1.80;1.70;;;23.80;55.10;;;-142.21;64.44;112049.66;5055138;28;20204;-74
2022/07/27 04:01:13;;;;;;;1.87;1.77;;;23.80;55.70;;;-142.21;64.36;112049.66;5054307;28;20310;-73
2022/07/27 04:03:40;;;;;;;2.50;1.60;;;23.80;55.10;;;-142.21;64.34;112049.66;5061560;28;20211;-73
2022/07/27 04:06:08;;;;;;;2.40;2.20;;;23.80;55.10;;;-142.21;64.48;112049.66;5059668;28;20193;-74
2022/07/27 04:08:35;;;;;;;3.00;2.10;;;23.80;55.20;;;-142.21;64.65;112049.66;5053577;28;20228;-74
2022/07/27 04:11:02;;;;;;;2.13;1.87;;;23.80;55.80;;;-142.21;65.39;112049.66;5052134;28;20300;-74
2022/07/27 04:13:30;;;;;;;4.30;2.30;;;23.80;55.40;;;-142.21;66.02;112049.66;5063098;28;20217;-74
2022/07/27 04:15:58;;;;;;;4.30;1.60;;;23.80;55.60;;;-142.21;66.55;112049.66;5058003;28;20680;-74
2022/07/27 04:18:25;;;;;;;3.73;2.13;;;23.80;55.60;;;-142.21;65.90;112049.66;5071527;28;20227;-74
2022/07/27 04:20:52;;;;;;;4.23;2.23;;;23.70;55.50;;;-142.21;66.99;112049.66;5067991;28;20202;-74
2022/07/27 04:23:19;;;;;;;3.43;1.90;;;23.80;55.80;;;-142.21;66.14;112049.66;5063263;28;20205;-75
2022/07/27 04:25:46;;;;;;;2.47;1.60;;;23.70;55.50;;;-142.21;68.29;112049.66;5072846;28;20215;-75
2022/07/27 04:28:13;;;;;;;1.90;1.80;;;23.70;56.30;;;-142.21;68.08;112049.66;5065358;28;20273;-74
2022/07/27 04:30:41;;;;;;;2.30;1.90;;;23.80;56.20;;;-142.21;68.15;112049.66;5071139;28;20287;-74
2022/07/27 04:33:09;;;;;;;2.43;2.00;;;23.80;56.10;;;-142.21;69.06;112049.66;5064274;28;20299;-74
2022/07/27 04:35:36;;;;;;;2.17;1.97;;;23.80;56.40;;;-142.21;68.53;112049.66;5072416;28;20226;-74
2022/07/27 04:38:03;;;;;;;2.20;2.00;;;23.70;56.30;;;-142.21;68.60;112049.66;5054360;28;20718;-74
2022/07/27 04:40:32;;;;;;;2.93;1.60;;;23.80;56.40;;;-142.21;69.16;112049.66;5066778;28;20204;-74
2022/07/27 04:42:59;;;;;;;2.97;1.67;;;23.80;56.40;;;-142.21;69.18;112049.66;5072678;28;20560;-74
2022/07/27 04:45:26;;;;;;;2.63;1.60;;;23.70;56.40;;;-142.21;69.42;112049.66;5077975;28;20212;-73
2022/07/27 04:47:55;;;;;;;6.80;2.10;;;23.70;56.40;;;-142.21;69.74;112049.66;5065919;28;20201;-74
2022/07/27 04:50:23;;;;;;;5.50;2.13;;;23.70;56.60;;;-142.21;69.93;112049.66;5056335;28;20237;-73
2022/07/27 04:52:50;;;;;;;4.03;2.13;;;23.70;56.70;;;-142.21;69.14;112049.66;5066852;28;20216;-73
2022/07/27 04:55:17;;;;;;;9.23;3.40;;;23.70;57.00;;;-142.21;69.69;112049.66;5068452;28;20284;-74
2022/07/27 04:57:44;;;;;;;10.57;3.43;;;23.80;56.60;;;-142.21;69.24;112049.66;5065786;28;20293;-74
2022/07/27 05:00:13;;;;;;;5.93;2.70;;;23.80;56.70;;;-142.21;70.12;112049.66;5067697;28;20205;-74
2022/07/27 05:02:41;;;;;;;4.03;2.60;;;23.70;56.70;;;-142.21;69.14;112049.66;5063649;28;20311;-74
2022/07/27 05:05:10;;;;;;;8.43;2.93;;;23.70;56.50;;;-142.21;68.52;112049.66;5061543;28;20197;-74
2022/07/27 05:07:37;;;;;;;1.93;1.80;;;23.70;56.40;;;-142.21;67.97;112049.66;5066393;28;20222;-73
2022/07/27 05:10:05;;;;;;;1.63;1.53;;;23.80;56.40;;;-142.21;67.75;112049.66;5067971;28;20757;-74
2022/07/27 05:12:32;;;;;;;1.50;1.40;;;23.80;56.20;;;-142.21;68.03;112049.66;5070807;28;20288;-75
2022/07/27 05:14:59;;;;;;;1.80;1.60;;;23.80;56.40;;;-142.21;68.83;112049.66;5055667;28;20201;-74
2022/07/27 05:17:26;;;;;;;2.03;1.83;;;23.80;56.40;;;-142.21;67.86;112049.66;5071032;28;20228;-74
2022/07/27 05:19:53;;;;;;;2.23;1.50;;;23.80;56.30;;;-142.21;67.93;112049.66;5056541;28;20246;-74
2022/07/27 05:22:22;;;;;;;1.60;1.50;;;23.80;56.10;;;-142.21;67.53;112049.66;5063489;28;20235;-74
2022/07/27 05:24:49;;;;;;;1.53;1.43;;;23.80;56.10;;;-142.21;68.15;112049.66;5072321;28;20604;-73
2022/07/27 05:27:16;;;;;;;1.80;1.63;;;23.80;56.10;;;-142.21;70.12;112049.66;5069878;28;20605;-73
2022/07/27 05:29:43;;;;;;;1.70;1.60;;;23.80;56.50;;;-142.21;70.29;112049.66;5068615;28;20229;-73
2022/07/27 05:32:11;;;;;;;1.50;1.30;;;23.80;56.60;;;-142.21;70.02;112049.66;5059555;28;20279;-73
2022/07/27 05:34:40;;;;;;;1.70;1.60;;;23.80;56.60;;;-142.21;69.70;112049.66;5063821;28;20247;-73
2022/07/27 05:37:08;;;;;;;5.07;1.57;;;23.80;56.50;;;-142.21;69.29;112049.66;5055064;28;20236;-73
2022/07/27 05:39:37;;;;;;;2.13;1.67;;;23.80;56.40;;;-142.21;69.04;112049.66;5066254;28;20232;-73
2022/07/27 05:42:05;;;;;;;2.37;1.90;;;23.90;56.50;;;-142.21;68.69;112049.66;5061764;28;20730;-74
2022/07/27 05:44:32;;;;;;;1.23;1.13;;;23.90;56.40;;;-142.21;68.74;112049.66;5062700;28;20296;-74
2022/07/27 05:46:59;;;;;;;1.30;1.20;;;24.00;56.40;;;-142.21;68.24;112049.66;5075388;28;20295;-74
2022/07/27 05:49:26;;;;;;;1.50;1.40;;;24.00;56.20;;;-142.21;67.53;112049.66;5059483;28;20229;-73
2022/07/27 05:51:53;;;;;;;1.77;1.27;;;24.10;56.10;;;-142.21;67.54;112049.66;5067231;28;20291;-73
2022/07/27 05:54:21;;;;;;;1.83;1.40;;;24.10;56.20;;;-142.21;68.43;112049.66;5068604;28;20540;-74
2022/07/27 05:56:49;;;;;;;2.17;1.30;;;24.10;56.40;;;-142.21;67.49;112049.66;5058139;28;20277;-74
2022/07/27 05:59:16;;;;;;;2.67;1.43;;;24.10;56.10;;;-142.21;66.99;112049.66;5064560;28;20205;-73
2022/07/27 06:01:44;;;;;;;2.27;1.60;;;24.20;55.90;;;-142.21;68.01;112049.66;5056161;28;20266;-73
2022/07/27 06:04:11;;;;;;;1.83;1.73;;;24.30;56.10;;;-142.21;67.87;112049.66;5055449;28;20206;-73
2022/07/27 06:09:22;;;;;;;1.87;1.57;;;24.40;56.20;;;-142.21;66.77;112049.66;5054820;28;20240;-73
2022/07/27 06:11:51;;;;;;;1.53;1.40;;;24.40;55.90;;;-142.21;67.38;112049.66;5073907;28;20284;-73
2022/07/27 06:14:18;;;;;;;1.50;1.40;;;24.40;55.90;;;-142.21;66.65;112049.66;5073899;28;20609;-74
2022/07/27 06:16:45;;;;;;;1.63;1.43;;;24.50;55.90;;;-142.21;66.22;112049.66;5058792;28;20262;-74
2022/07/27 06:19:12;;;;;;;1.57;1.47;;;24.60;55.80;;;-142.21;67.63;112049.66;5061621;28;20611;-73
2022/07/27 06:21:39;;;;;;;1.73;1.63;;;24.60;55.90;;;-142.21;67.47;112049.66;5054684;28;20271;-73
2022/07/27 06:24:07;;;;;;;2.00;1.40;;;24.70;56.00;;;-142.21;65.86;112049.66;5053919;28;20206;-74
2022/07/27 06:26:34;;;;;;;3.00;1.53;;;24.70;55.60;;;-142.21;66.25;112049.66;5054968;28;20209;-73
2022/07/27 06:29:03;;;;;;;1.50;1.40;;;24.80;55.60;;;-142.21;66.79;112049.66;5054149;28;20662;-73
2022/07/27 06:31:30;;;;;;;1.47;1.37;;;24.80;55.90;;;-142.21;65.10;112049.66;5054475;28;20297;-74
2022/07/27 06:33:57;;;;;;;1.60;1.50;;;24.90;55.50;;;-142.21;65.61;112049.66;5054246;28;20209;-74
2022/07/27 06:36:24;;;;;;;2.10;1.23;;;24.90;55.60;;;-142.21;64.46;112049.66;5053908;28;20297;-74
2022/07/27 06:38:53;;;;;;;1.30;1.20;;;25.00;55.40;;;-142.21;64.53;112049.66;5059225;28;20260;-73
2022/07/27 06:41:20;;;;;;;1.27;1.13;;;25.00;55.30;;;-142.21;62.78;112049.66;5073803;28;20567;-74
2022/07/27 06:43:49;;;;;;;1.43;1.20;;;25.10;54.90;;;-142.21;62.54;112049.66;5073867;28;20207;-74
2022/07/27 06:46:18;;;;;;;1.80;1.43;;;25.10;54.60;;;-142.21;61.53;112049.66;5073343;28;20208;-74
2022/07/27 06:48:45;;;;;;;2.40;1.40;;;25.20;54.50;;;-142.21;62.49;112049.66;5073859;28;20653;-74
2022/07/27 06:51:12;;;;;;;1.37;1.20;;;25.10;54.50;;;-142.21;62.44;112049.66;5073004;28;20693;-74
2022/07/27 06:53:39;;;;;;;1.40;1.30;;;25.10;54.40;;;-142.21;62.22;112049.66;5073852;28;20205;-74
2022/07/27 06:56:07;;;;;;;1.63;1.30;;;25.20;54.30;;;-142.21;61.09;112049.66;5068115;28;20294;-75
2022/07/27 06:58:36;;;;;;;2.90;1.47;;;25.30;54.10;;;-142.21;60.20;112049.66;5053862;28;20210;-74
2022/07/27 07:01:04;;;;;;;1.47;1.17;;;25.30;53.80;;;-142.21;59.91;112049.66;5054198;28;20215;-74
2022/07/27 07:03:32;;;;;;;1.90;1.23;;;25.30;53.60;;;-142.21;60.13;112049.66;5053772;28;20315;-74
2022/07/27 07:05:59;;;;;;;0.70;0.70;;;25.40;53.60;;;-142.21;59.44;112049.66;5053788;28;20233;-73
2022/07/27 07:08:27;;;;;;;1.67;1.17;;;25.40;53.40;;;-142.21;58.10;112049.66;5052967;28;20311;-74
2022/07/27 07:10:54;;;;;;;2.33;1.30;;;25.50;53.20;;;-142.21;59.90;112049.66;5053835;28;20281;-74
2022/07/27 07:13:22;;;;;;;1.30;1.20;;;25.50;53.50;;;-142.21;57.42;112049.66;5060809;28;20236;-74
2022/07/27 07:15:49;;;;;;;1.90;1.07;;;25.60;52.90;;;-142.21;56.83;112049.66;5073953;28;20205;-75
2022/07/27 07:18:17;;;;;;;1.77;1.20;;;25.60;52.70;;;-142.21;57.58;112049.66;5037480;28;20216;-74
2022/07/27 07:20:45;;;;;;;1.63;1.17;;;25.60;52.80;;;-142.21;57.78;112049.66;5067595;28;20308;-74
2022/07/27 07:23:12;;;;;;;1.10;1.00;;;25.70;52.90;;;-142.21;57.36;112049.66;5052843;28;20268;-75
2022/07/27 07:25:41;;;;;;;2.03;1.03;;;25.70;52.80;;;-142.21;57.35;112049.66;5061136;28;20208;-74
2022/07/27 07:28:08;;;;;;;3.50;1.73;;;25.80;52.60;;;-142.21;58.44;112049.66;5072986;28;20240;-74
2022/07/27 07:30:36;;;;;;;1.10;1.00;;;25.80;52.80;;;-142.21;57.97;112049.66;5073375;28;20228;-74
2022/07/27 07:33:03;;;;;;;2.00;1.03;;;25.80;52.80;;;-142.21;57.10;112049.66;5073125;28;20677;-74
2022/07/27 07:35:31;;;;;;;1.10;1.03;;;25.90;52.50;;;-142.21;57.47;112049.66;5072576;28;20199;-74
2022/07/27 07:38:00;;;;;;;2.53;1.20;;;25.90;53.10;;;-142.21;56.47;112049.66;5066974;28;20304;-73
2022/07/27 07:40:27;;;;;;;1.00;0.93;;;26.00;52.10;;;-142.21;56.93;112049.66;5071009;28;20197;-74
2022/07/27 07:42:58;;;;;;;2.90;1.40;;;26.10;52.40;;;-142.21;55.90;112049.66;5073080;28;20371;-74
2022/07/27 07:45:27;;;;;;;2.73;1.20;;;26.20;52.10;;;-142.21;55.76;112049.66;5072385;28;20224;-74
2022/07/27 07:47:55;;;;;;;1.80;1.20;;;26.30;52.00;;;-142.21;55.53;112049.66;5073104;28;20211;-74
2022/07/27 07:50:24;;;;;;;1.20;1.10;;;26.30;51.90;;;-142.21;55.62;112049.66;5071738;28;20219;-75
2022/07/27 07:52:53;;;;;;;1.47;1.37;;;26.40;51.90;;;-142.21;54.59;112049.66;5072735;28;20284;-74
2022/07/27 07:55:24;;;;;;;1.20;1.10;;;26.40;52.10;;;-142.21;54.34;112049.66;5071385;28;20278;-73
2022/07/27 07:57:53;;;;;;;1.00;1.00;;;26.40;51.60;;;-142.21;54.83;112049.66;5072802;28;20189;-74
2022/07/27 08:00:23;;;;;;;1.90;1.30;;;26.40;51.70;;;-142.21;55.07;112049.66;5072250;28;20751;-73
2022/07/27 08:02:53;;;;;;;2.33;1.30;;;26.50;51.70;;;-142.21;53.39;112049.66;5071375;28;20224;-75
2022/07/27 08:05:21;;;;;;;1.60;1.43;;;26.60;51.40;;;-142.21;53.67;112049.66;5072224;28;20223;-72
2022/07/27 08:07:50;;;;;;;1.60;1.30;;;26.60;51.30;;;-142.21;52.68;112049.66;5072732;28;20221;-74
2022/07/27 08:10:23;;;;;;;1.70;1.37;;;26.60;50.90;;;-142.21;52.62;112049.66;5071738;28;20311;-74
2022/07/27 08:12:54;;;;;;;1.33;1.10;;;26.70;50.80;;;-142.21;52.71;112049.66;5059494;28;20312;-74
2022/07/27 08:15:23;;;;;;;2.03;1.23;;;26.80;50.80;;;-142.21;51.22;112049.66;5052057;28;20293;-73
2022/07/27 08:17:50;;;;;;;2.80;1.17;;;26.90;50.40;;;-142.21;51.87;112049.66;5062265;28;20256;-73
2022/07/27 08:20:18;;;;;;;2.00;1.23;;;27.00;50.40;;;-142.21;50.54;112049.66;5068886;28;20201;-74
2022/07/27 08:22:45;;;;;;;1.60;1.50;;;27.10;50.10;;;-142.21;50.16;112049.66;5071392;28;20221;-74
2022/07/27 08:25:13;;;;;;;1.87;1.30;;;27.20;50.10;;;-142.21;50.46;112049.66;5071737;28;20288;-74
2022/07/27 08:27:41;;;;;;;1.67;1.57;;;27.20;49.80;;;-142.21;51.29;112049.66;5072705;28;20289;-73
2022/07/27 08:30:11;;;;;;;1.17;1.07;;;27.20;50.10;;;-142.21;51.73;112049.66;5062663;28;20241;-74
2022/07/27 08:32:53;;;;;;;2.93;1.40;;;27.40;50.40;;;-142.21;50.66;112049.66;5072089;28;20229;-74
2022/07/27 08:35:21;;;;;;;3.13;1.53;;;27.50;49.80;;;-142.21;51.00;112049.66;5059258;28;20193;-74
2022/07/27 08:37:49;;;;;;;1.60;1.20;;;27.60;50.10;;;-142.21;50.94;112049.66;5072568;28;20292;-76
2022/07/27 08:40:16;;;;;;;1.03;1.03;;;27.60;50.00;;;-142.21;49.25;112049.66;5070377;28;20224;-74
2022/07/27 08:42:46;;;;;;;1.83;1.07;;;27.70;49.50;;;-142.21;48.42;112049.66;5072269;28;20229;-74
2022/07/27 08:45:16;;;;;;;1.23;1.13;;;27.80;49.60;;;-142.21;48.39;112049.66;5071561;28;20305;-72
2022/07/27 08:47:45;;;;;;;1.70;1.23;;;27.90;48.90;;;-142.21;47.80;112049.66;5052239;28;20200;-74
2022/07/27 08:50:24;;;;;;;1.80;1.50;;;28.00;48.80;;;-142.21;48.13;112049.66;5062164;28;20328;-73
2022/07/27 08:52:56;;;;;;;2.63;1.00;;;28.00;48.80;;;-142.21;48.27;112049.66;5064042;28;20302;-74
2022/07/27 08:55:24;;;;;;;1.83;1.20;;;28.10;49.50;;;-142.21;47.97;112049.66;5071854;28;20228;-75
2022/07/27 08:57:53;;;;;;;0.97;0.97;;;28.20;48.90;;;-142.21;46.39;112049.66;5070620;28;20294;-74
2022/07/27 09:00:20;;;;;;;2.20;1.30;;;28.20;48.20;;;-142.21;46.08;112049.66;5057333;28;20258;-74
2022/07/27 09:02:48;;;;;;;1.40;1.30;;;28.20;47.80;;;-142.21;46.29;112049.66;5071165;28;20251;-74
2022/07/27 09:05:15;;;;;;;1.50;1.17;;;28.20;47.90;;;-142.21;46.79;112049.66;5071297;28;20732;-73
2022/07/27 09:07:43;;;;;;;1.30;1.20;;;28.20;47.90;;;-142.21;45.96;112049.66;5069714;28;20329;-74
2022/07/27 09:10:11;;;;;;;2.00;1.10;;;28.20;47.90;;;-142.21;46.24;112049.66;5066038;28;20708;-74
2022/07/27 09:12:38;;;;;;;1.20;1.07;;;28.30;48.00;;;-142.21;46.44;112049.66;5063359;28;20286;-73
2022/07/27 09:15:18;;;;;;;1.70;1.30;;;28.40;47.90;;;-142.21;46.27;112049.66;5055608;28;20253;-76
2022/07/27 09:17:46;;;;;;;1.67;1.40;;;28.50;47.70;;;-142.21;45.74;112049.66;5051942;28;20214;-76
2022/07/27 09:20:17;;;;;;;2.13;1.30;;;28.60;47.90;;;-142.21;45.42;112049.66;5051817;28;20216;-76
2022/07/27 09:22:49;;;;;;;1.63;1.30;;;28.60;47.50;;;-142.21;44.99;112049.66;5051721;28;20215;-76
2022/07/27 09:25:19;;;;;;;1.77;1.13;;;28.60;47.30;;;-142.21;45.83;112049.66;5051517;28;20197;-77
2022/07/27 09:27:48;;;;;;;1.40;1.20;;;28.50;48.00;;;-142.21;45.60;112049.66;5067751;28;20202;-76
2022/07/27 09:30:19;;;;;;;1.33;1.13;;;28.50;47.30;;;-142.21;45.62;112049.66;5059361;28;20212;-74
2022/07/27 09:32:57;;;;;;;1.23;0.87;;;28.50;47.50;;;-142.21;44.52;112049.66;5075676;28;20244;-75
2022/07/27 09:35:28;;;;;;;4.70;1.50;;;28.50;47.00;;;-142.21;44.56;112049.66;5075014;28;20562;-75
2022/07/27 09:37:56;;;;;;;1.90;1.80;;;28.30;47.10;;;-142.21;44.57;112049.66;5067554;28;20607;-76
2022/07/27 09:40:24;;;;;;;2.50;1.50;;;28.30;47.20;;;-142.21;44.92;112049.66;5074743;28;20294;-75
2022/07/27 09:43:11;;;;;;;2.33;1.30;;;28.50;47.40;;;-142.21;44.21;112049.66;5075625;28;20283;-77
2022/07/27 09:45:42;;;;;;;1.60;1.20;;;28.70;46.80;;;-142.21;46.17;112049.66;5074766;28;20620;-77
2022/07/27 09:48:14;;;;;;;2.10;1.10;;;28.80;47.60;;;-142.21;44.40;112049.66;5075471;28;20192;-77
2022/07/27 09:50:44;;;;;;;2.63;1.57;;;28.90;47.20;;;-142.21;44.24;112049.66;5075576;28;20198;-75
2022/07/27 09:53:19;;;;;;;3.27;1.60;;;29.00;46.80;;;-142.21;44.26;112049.66;5074543;28;20302;-75
2022/07/27 09:55:57;;;;;;;2.23;1.43;;;29.10;46.90;;;-142.21;43.95;112049.66;5057560;28;20275;-77
2022/07/27 09:58:44;;;;;;;6.87;1.40;;;29.20;46.80;;;-142.21;42.97;112049.66;5074748;28;20195;-76
2022/07/27 10:01:16;;;;;;;2.03;1.20;;;29.30;45.90;;;-142.21;42.75;112049.66;5056437;28;20283;-75
2022/07/27 10:03:45;;;;;;;1.50;1.40;;;29.30;46.10;;;-142.21;42.92;112049.66;5067666;28;20245;-76
2022/07/27 10:06:14;;;;;;;3.17;1.33;;;29.30;45.80;;;-142.21;43.26;112049.66;5055870;28;20203;-75
2022/07/27 10:08:51;;;;;;;2.30;1.40;;;29.20;45.70;;;-142.21;43.20;112049.66;5054142;28;20710;-73